Time;durP1;ratioP1;P1;durP2;ratioP2;P2;SDS_P1;SDS_P2;PMS_P1;PMS_P2;Temp;Humidity;BMP_temperature;BMP_pressure;BME280_temperature;BME280_humidity;BME280_pressure;Samples;Min_cycle;Max_cycle;Signal;HPM_P1;HPM_P2
2022/04/17 00:02:01;;;;;;;;;;;8.90;99.90;;;;;;4986178;28;19922;-83
2022/04/17 00:04:27;;;;;;;;;;;8.90;99.90;;;;;;4964195;28;19974;-81
2022/04/17 00:06:53;;;;;;;;;;;8.80;99.90;;;;;;4966138;28;19958;-83
2022/04/17 00:09:18;;;;;;;;;;;8.80;99.90;;;;;;4985644;28;19914;-82
2022/04/17 00:11:44;;;;;;;;;;;8.80;99.90;;;;;;4965441;28;19920;-83
2022/04/17 00:14:12;;;;;;;;;;;8.70;99.90;;;;;;4989601;28;19918;-83
2022/04/17 00:16:40;;;;;;;;;;;8.70;99.90;;;;;;4983519;28;19925;-83
2022/04/17 00:19:09;;;;;;;;;;;8.70;99.90;;;;;;4968779;28;19914;-82
2022/04/17 00:21:35;;;;;;;;;;;8.70;99.90;;;;;;4983350;28;19911;-83
2022/04/17 00:24:02;;;;;;;;;;;8.60;99.90;;;;;;4988586;28;19920;-82
2022/04/17 00:26:28;;;;;;;;;;;8.50;99.90;;;;;;4966450;28;19945;-83
2022/04/17 00:28:53;;;;;;;;;;;8.50;99.90;;;;;;4984704;28;19917;-82
2022/04/17 00:31:19;;;;;;;;;;;8.40;99.90;;;;;;4967682;28;20338;-83
2022/04/17 00:33:52;;;;;;;;;;;8.40;99.90;;;;;;4989044;28;19937;-83
2022/04/17 00:36:17;;;;;;;;;;;8.40;99.90;;;;;;4980683;28;19925;-82
2022/04/17 00:38:42;;;;;;;;;;;8.30;99.90;;;;;;4984266;28;19910;-83
2022/04/17 00:41:08;;;;;;;;;;;8.30;99.90;;;;;;4986815;28;19924;-83
2022/04/17 00:43:42;;;;;;;;;;;8.20;99.90;;;;;;4983112;28;19960;-83
2022/04/17 00:46:08;;;;;;;;;;;8.20;99.90;;;;;;4993079;28;20343;-83
2022/04/17 00:48:33;;;;;;;;;;;8.10;99.90;;;;;;4994437;28;19910;-83
2022/04/17 00:51:00;;;;;;;;;;;8.10;99.90;;;;;;4966076;28;19981;-82
2022/04/17 00:53:26;;;;;;;;;;;8.00;99.90;;;;;;4988380;28;19917;-82
2022/04/17 00:55:52;;;;;;;;;;;8.00;99.90;;;;;;4965587;28;19914;-82
2022/04/17 00:58:18;;;;;;;;;;;7.90;99.90;;;;;;4988462;28;19920;-82
2022/04/17 01:00:45;;;;;;;;;;;7.90;99.90;;;;;;4983288;28;20367;-81
2022/04/17 01:03:11;;;;;;;;;;;7.80;99.90;;;;;;4965046;28;19918;-82
2022/04/17 01:05:39;;;;;;;;;;;7.80;99.90;;;;;;4967838;28;19917;-83
2022/04/17 01:08:06;;;;;;;;;;;7.80;99.90;;;;;;4980816;28;19918;-83
2022/04/17 01:11:04;;;;;;;;;;;7.70;99.90;;;;;;4985472;28;20354;-82
2022/04/17 01:20:09;;;;;;;;;;;7.60;99.90;;;;;;4983344;28;20013;-83
2022/04/17 01:22:34;;;;;;;;;;;7.60;99.90;;;;;;4984849;28;19929;-83
2022/04/17 01:27:47;;;;;;;;;;;7.50;99.90;;;;;;4979733;28;19985;-83
2022/04/17 01:30:12;;;;;;;;;;;7.40;99.90;;;;;;4963315;28;19914;-83
2022/04/17 01:32:38;;;;;;;;;;;7.40;99.90;;;;;;4977857;28;19926;-83
2022/04/17 01:35:03;;;;;;;;;;;7.40;99.90;;;;;;4982638;28;19918;-83
2022/04/17 01:37:29;;;;;;;;;;;7.30;99.90;;;;;;4979289;28;20274;-83
2022/04/17 01:39:54;;;;;;;;;;;7.30;99.90;;;;;;4966876;28;19929;-81
2022/04/17 01:42:20;;;;;;;;;;;7.30;99.90;;;;;;4989520;28;20423;-82
2022/04/17 01:44:45;;;;;;;;;;;7.20;99.90;;;;;;4981457;28;20382;-83
2022/04/17 01:47:11;;;;;;;;;;;7.20;99.90;;;;;;4975890;28;19952;-82
2022/04/17 01:49:36;;;;;;;;;;;7.20;99.90;;;;;;4984914;28;19961;-83
2022/04/17 01:52:02;;;;;;;;;;;7.10;99.90;;;;;;4978689;28;19923;-83
2022/04/17 01:54:28;;;;;;;;;;;7.10;99.90;;;;;;4981627;28;19949;-83
2022/04/17 01:56:54;;;;;;;;;;;7.00;99.90;;;;;;4981294;28;20326;-81
2022/04/17 01:59:21;;;;;;;;;;;7.00;99.90;;;;;;4978863;28;19921;-83
2022/04/17 02:01:48;;;;;;;;;;;6.90;99.90;;;;;;4982371;28;19967;-81
2022/04/17 02:04:14;;;;;;;;;;;6.90;99.90;;;;;;4963857;28;20294;-83
2022/04/17 02:06:39;;;;;;;;;;;6.90;99.90;;;;;;4966591;28;20001;-83
2022/04/17 02:09:07;;;;;;;;;;;6.80;99.90;;;;;;4967272;28;19965;-82
2022/04/17 02:11:33;;;;;;;;;;;6.70;99.90;;;;;;4970285;28;19918;-82
2022/04/17 02:13:58;;;;;;;;;;;6.70;99.90;;;;;;4962989;28;19978;-83
2022/04/17 02:16:24;;;;;;;;;;;6.60;99.90;;;;;;4981763;28;19918;-83
2022/04/17 02:18:49;;;;;;;;;;;6.60;99.90;;;;;;5025582;23;19934;-85
2022/04/17 02:21:16;;;;;;;;;;;6.60;99.90;;;;;;5021116;28;19921;-84
2022/04/17 02:23:42;;;;;;;;;;;6.60;99.90;;;;;;5036798;28;19929;-85
2022/04/17 02:26:08;;;;;;;;;;;6.60;99.90;;;;;;5022517;28;19917;-84
2022/04/17 02:28:35;;;;;;;;;;;6.50;99.90;;;;;;5012639;28;20001;-86
2022/04/17 02:31:04;;;;;;;;;;;6.50;99.90;;;;;;5005546;28;19918;-86
2022/04/17 02:33:29;;;;;;;;;;;6.50;99.90;;;;;;5013913;28;19914;-85
2022/04/17 02:35:55;;;;;;;;;;;6.50;99.90;;;;;;5003014;28;19920;-85
2022/04/17 02:38:21;;;;;;;;;;;6.40;99.90;;;;;;4999217;28;19920;-85
2022/04/17 02:40:46;;;;;;;;;;;6.40;99.90;;;;;;5002365;28;19921;-85
2022/04/17 02:43:12;;;;;;;;;;;6.40;99.90;;;;;;5010466;28;20393;-85
2022/04/17 02:45:37;;;;;;;;;;;6.40;99.90;;;;;;5002672;28;19972;-85
2022/04/17 02:48:03;;;;;;;;;;;6.40;99.90;;;;;;5002376;28;21604;-85
2022/04/17 02:50:29;;;;;;;;;;;6.40;99.90;;;;;;5002527;28;19921;-85
2022/04/17 02:52:57;;;;;;;;;;;6.50;99.90;;;;;;5002625;28;19952;-85
2022/04/17 02:55:22;;;;;;;;;;;6.50;99.90;;;;;;5003654;28;19977;-85
2022/04/17 02:57:48;;;;;;;;;;;6.50;99.90;;;;;;5002862;28;19917;-85
2022/04/17 03:00:14;;;;;;;;;;;6.50;99.90;;;;;;5002414;28;19925;-85
2022/04/17 03:05:37;;;;;;;;;;;6.40;99.90;;;;;;4998756;28;19995;-85
2022/04/17 03:08:06;;;;;;;;;;;6.30;99.90;;;;;;5007220;28;19957;-84
2022/04/17 03:10:32;;;;;;;;;;;6.30;99.90;;;;;;5001911;28;19921;-85
2022/04/17 03:12:57;;;;;;;;;;;6.30;99.90;;;;;;5007699;28;19914;-85
2022/04/17 03:15:23;;;;;;;;;;;6.20;99.90;;;;;;5001228;28;19921;-85
2022/04/17 03:17:49;;;;;;;;;;;6.20;99.90;;;;;;5001979;28;19940;-84
2022/04/17 03:20:14;;;;;;;;;;;6.20;99.90;;;;;;5003511;28;19961;-85
2022/04/17 03:22:41;;;;;;;;;;;6.20;99.90;;;;;;5006540;28;20258;-85
2022/04/17 03:25:07;;;;;;;;;;;6.20;99.90;;;;;;5002433;28;19921;-85
2022/04/17 03:27:32;;;;;;;;;;;6.20;99.90;;;;;;5000558;28;19910;-86
2022/04/17 03:29:58;;;;;;;;;;;6.20;99.90;;;;;;5000851;28;19914;-85
2022/04/17 03:32:23;;;;;;;;;;;6.20;99.90;;;;;;5002602;28;20004;-84
2022/04/17 03:34:49;;;;;;;;;;;6.20;99.90;;;;;;5002005;28;19920;-84
2022/04/17 03:37:14;;;;;;;;;;;6.10;99.90;;;;;;5008230;28;20480;-85
2022/04/17 03:39:40;;;;;;;;;;;6.10;99.90;;;;;;4999880;28;19921;-83
2022/04/17 03:42:06;;;;;;;;;;;6.10;99.90;;;;;;5006066;28;19918;-84
2022/04/17 03:44:33;;;;;;;;;;;6.00;99.90;;;;;;5002211;28;19995;-85
2022/04/17 03:46:58;;;;;;;;;;;6.00;99.90;;;;;;5003346;28;20251;-85
2022/04/17 03:49:24;;;;;;;;;;;6.00;99.90;;;;;;5005462;28;19969;-86
2022/04/17 03:51:49;;;;;;;;;;;6.00;99.90;;;;;;5004695;28;19909;-85
2022/04/17 03:54:16;;;;;;;;;;;6.00;99.90;;;;;;5009024;28;19921;-85
2022/04/17 03:56:43;;;;;;;;;;;6.00;99.90;;;;;;5004467;28;20035;-85
2022/04/17 03:59:09;;;;;;;;;;;5.90;99.90;;;;;;5004636;28;19972;-85
2022/04/17 04:01:35;;;;;;;;;;;6.00;99.90;;;;;;5006119;28;19942;-84
2022/04/17 04:04:00;;;;;;;;;;;5.90;99.90;;;;;;5003234;28;19918;-84
2022/04/17 04:06:26;;;;;;;;;;;5.90;99.90;;;;;;5003695;28;19913;-85
2022/04/17 04:08:51;;;;;;;;;;;5.90;99.90;;;;;;5008190;28;19910;-85
2022/04/17 04:11:17;;;;;;;;;;;5.80;99.90;;;;;;5004769;28;20001;-84
2022/04/17 04:13:43;;;;;;;;;;;5.80;99.90;;;;;;5006151;28;20130;-86
2022/04/17 04:16:09;;;;;;;;;;;5.80;99.90;;;;;;5003978;28;19976;-83
2022/04/17 04:18:34;;;;;;;;;;;5.70;99.90;;;;;;5004259;28;19921;-85
2022/04/17 04:21:00;;;;;;;;;;;5.70;99.90;;;;;;5002450;28;19914;-85
2022/04/17 04:23:26;;;;;;;;;;;5.70;99.90;;;;;;5004068;28;19985;-84
2022/04/17 04:25:51;;;;;;;;;;;5.70;99.90;;;;;;5003898;28;19921;-86
2022/04/17 04:31:07;;;;;;;;;;;5.70;99.90;;;;;;5001706;28;20337;-85
2022/04/17 04:33:33;;;;;;;;;;;5.70;99.90;;;;;;5002955;28;19936;-85
2022/04/17 04:36:01;;;;;;;;;;;5.70;99.90;;;;;;5001540;28;19921;-84
2022/04/17 04:38:27;;;;;;;;;;;5.70;99.90;;;;;;5005073;28;19914;-85
2022/04/17 04:40:52;;;;;;;;;;;5.70;99.90;;;;;;5002534;28;19921;-85
2022/04/17 04:43:18;;;;;;;;;;;5.70;99.90;;;;;;5005179;28;19917;-84
2022/04/17 04:51:13;;;;;;;;;;;5.70;99.90;;;;;;5002631;28;19921;-83
2022/04/17 04:53:39;;;;;;;;;;;5.80;99.90;;;;;;5003147;28;20009;-85
2022/04/17 04:56:04;;;;;;;;;;;5.80;99.90;;;;;;5001451;28;19976;-84
2022/04/17 04:58:30;;;;;;;;;;;5.80;99.90;;;;;;5008877;28;19914;-84
2022/04/17 05:00:55;;;;;;;;;;;5.80;99.90;;;;;;5003625;28;19920;-85
2022/04/17 05:03:21;;;;;;;;;;;5.90;99.90;;;;;;5004727;28;20009;-84
2022/04/17 05:05:46;;;;;;;;;;;5.90;99.90;;;;;;5003760;28;19977;-84
2022/04/17 05:08:12;;;;;;;;;;;5.90;99.90;;;;;;5001525;28;19929;-85
2022/04/17 05:10:38;;;;;;;;;;;5.90;99.90;;;;;;5001554;28;19921;-85
2022/04/17 05:13:04;;;;;;;;;;;6.00;99.90;;;;;;5003843;28;19918;-84
2022/04/17 05:15:30;;;;;;;;;;;6.00;99.90;;;;;;5000057;28;19918;-85
2022/04/17 05:17:55;;;;;;;;;;;6.10;99.90;;;;;;5002384;28;19918;-83
2022/04/17 05:20:21;;;;;;;;;;;6.10;99.90;;;;;;5004152;28;19914;-84
2022/04/17 05:22:50;;;;;;;;;;;6.10;99.90;;;;;;5006925;28;19924;-86
2022/04/17 05:25:15;;;;;;;;;;;6.20;99.90;;;;;;5003483;28;19945;-85
2022/04/17 05:27:41;;;;;;;;;;;6.30;99.90;;;;;;5008172;28;19913;-84
2022/04/17 05:30:07;;;;;;;;;;;6.80;99.90;;;;;;5005084;28;19910;-85
2022/04/17 05:32:32;;;;;;;;;;;8.70;99.90;;;;;;5007414;28;19913;-86
2022/04/17 05:34:58;;;;;;;;;;;9.60;99.90;;;;;;5001103;28;19941;-86
2022/04/17 05:37:23;;;;;;;;;;;12.70;99.90;;;;;;4998261;28;20385;-84
2022/04/17 05:39:48;;;;;;;;;;;16.60;99.90;;;;;;4998676;28;19973;-81
2022/04/17 05:42:15;;;;;;;;;;;20.00;99.90;;;;;;4998340;28;19914;-83
2022/04/17 05:44:41;;;;;;;;;;;23.10;99.90;;;;;;4999854;28;19972;-83
2022/04/17 05:47:06;;;;;;;;;;;24.70;99.90;;;;;;4998808;28;19914;-81
2022/04/17 05:49:32;;;;;;;;;;;26.90;99.90;;;;;;4998946;28;19921;-83
2022/04/17 05:51:58;;;;;;;;;;;28.10;99.90;;;;;;4998354;28;19913;-82
2022/04/17 05:54:24;;;;;;;;;;;28.60;99.90;;;;;;5000211;28;20107;-82
2022/04/17 05:56:49;;;;;;;;;;;28.90;99.90;;;;;;5003516;28;19909;-84
2022/04/17 05:59:17;;;;;;;;;;;29.40;99.90;;;;;;4999485;28;19929;-83
2022/04/17 06:01:42;;;;;;;;;;;29.80;99.90;;;;;;4999930;28;19965;-84
2022/04/17 06:04:11;;;;;;;;;;;31.90;99.90;;;;;;4995607;28;19913;-84
2022/04/17 06:06:36;;;;;;;;;;;32.70;99.90;;;;;;4998596;28;19973;-83
2022/04/17 06:09:02;;;;;;;;;;;34.30;99.90;;;;;;4995055;28;19917;-83
2022/04/17 06:11:28;;;;;;;;;;;35.10;99.90;;;;;;4994520;28;19968;-83
2022/04/17 06:13:55;;;;;;;;;;;32.30;99.90;;;;;;4995890;28;20428;-84
2022/04/17 06:16:21;;;;;;;;;;;33.10;99.90;;;;;;4995510;28;19928;-81
2022/04/17 06:18:46;;;;;;;;;;;34.30;99.90;;;;;;4997412;28;19922;-83
2022/04/17 06:21:11;;;;;;;;;;;34.90;99.90;;;;;;4995920;28;19922;-85
2022/04/17 06:23:37;;;;;;;;;;;33.70;99.90;;;;;;4996453;28;19917;-83
2022/04/17 06:26:03;;;;;;;;;;;33.90;99.90;;;;;;4994120;28;19920;-84
2022/04/17 06:28:28;;;;;;;;;;;32.10;99.90;;;;;;4998938;28;19918;-84
2022/04/17 06:30:54;;;;;;;;;;;34.50;99.90;;;;;;4996061;28;19924;-85
2022/04/17 06:33:22;;;;;;;;;;;34.30;99.90;;;;;;4997876;28;19922;-84
2022/04/17 06:35:47;;;;;;;;;;;33.30;99.90;;;;;;4997385;28;19924;-83
2022/04/17 06:38:15;;;;;;;;;;;33.80;99.90;;;;;;4999983;28;19922;-84
2022/04/17 06:40:43;;;;;;;;;;;34.70;99.90;;;;;;4998236;28;19913;-84
2022/04/17 06:43:09;;;;;;;;;;;34.40;99.90;;;;;;4991805;28;19922;-83
2022/04/17 06:45:35;;;;;;;;;;;33.90;99.90;;;;;;4992554;28;19914;-83
2022/04/17 06:48:11;;;;;;;;;;;33.60;99.90;;;;;;4995777;28;19914;-85
2022/04/17 06:50:36;;;;;;;;;;;33.00;99.90;;;;;;4998397;28;19989;-83
2022/04/17 06:53:01;;;;;;;;;;;33.10;99.90;;;;;;4998355;28;19953;-83
2022/04/17 06:55:33;;;;;;;;;;;32.40;99.90;;;;;;4996158;28;20232;-84
2022/04/17 06:57:58;;;;;;;;;;;30.60;99.90;;;;;;4996728;28;19914;-84
2022/04/17 07:00:24;;;;;;;;;;;31.80;99.90;;;;;;4998214;28;19976;-83
2022/04/17 07:02:49;;;;;;;;;;;32.80;99.90;;;;;;4998666;28;20012;-83
2022/04/17 07:05:15;;;;;;;;;;;32.70;99.90;;;;;;4999263;28;19925;-85
2022/04/17 07:07:40;;;;;;;;;;;33.30;99.90;;;;;;5000297;28;20302;-85
2022/04/17 07:10:06;;;;;;;;;;;33.10;99.90;;;;;;4994019;28;19914;-83
2022/04/17 07:12:34;;;;;;;;;;;33.60;99.90;;;;;;4994962;28;20388;-84
2022/04/17 07:15:00;;;;;;;;;;;33.40;99.90;;;;;;4998327;28;19913;-85
2022/04/17 07:17:33;;;;;;;;;;;34.90;99.90;;;;;;4996929;28;19929;-84
2022/04/17 07:19:58;;;;;;;;;;;34.30;99.90;;;;;;4993714;28;19914;-84
2022/04/17 07:22:24;;;;;;;;;;;31.60;99.90;;;;;;4990415;28;19921;-84
2022/04/17 07:24:53;;;;;;;;;;;31.80;99.90;;;;;;4995727;28;19953;-83
2022/04/17 07:27:20;;;;;;;;;;;32.60;99.90;;;;;;4996513;28;19921;-84
2022/04/17 07:29:46;;;;;;;;;;;34.60;99.90;;;;;;4996212;28;20013;-84
2022/04/17 07:32:11;;;;;;;;;;;35.40;99.90;;;;;;4996088;28;21443;-84
2022/04/17 07:34:37;;;;;;;;;;;34.90;99.90;;;;;;5000045;28;19920;-85
2022/04/17 07:37:02;;;;;;;;;;;34.50;99.90;;;;;;4998291;28;20388;-84
2022/04/17 07:39:28;;;;;;;;;;;34.10;99.90;;;;;;4995630;28;19914;-83
2022/04/17 07:41:53;;;;;;;;;;;34.80;99.90;;;;;;4996211;28;19918;-88
2022/04/17 07:44:19;;;;;;;;;;;35.40;99.90;;;;;;4993602;28;19922;-86
2022/04/17 07:46:44;;;;;;;;;;;36.50;99.90;;;;;;4996162;28;19946;-85
2022/04/17 07:49:10;;;;;;;;;;;35.10;99.90;;;;;;5002636;28;19937;-87
2022/04/17 07:51:35;;;;;;;;;;;35.60;99.90;;;;;;5004414;28;20020;-83
2022/04/17 07:54:01;;;;;;;;;;;35.70;99.90;;;;;;5000580;28;19921;-85
2022/04/17 07:56:27;;;;;;;;;;;35.90;99.90;;;;;;5009718;28;19914;-84
2022/04/17 07:58:52;;;;;;;;;;;36.10;99.90;;;;;;4997846;28;20278;-86
2022/04/17 08:01:18;;;;;;;;;;;35.40;99.90;;;;;;4993347;28;20313;-83
2022/04/17 08:06:10;;;;;;;;;;;35.10;99.90;;;;;;4993511;28;19914;-87
2022/04/17 08:08:39;;;;;;;;;;;34.90;99.90;;;;;;4995626;28;19937;-87
2022/04/17 08:11:05;;;;;;;;;;;35.30;99.90;;;;;;4993715;28;19918;-83
2022/04/17 08:13:30;;;;;;;;;;;34.10;99.90;;;;;;4995463;28;19913;-83
2022/04/17 08:15:56;;;;;;;;;;;36.00;99.90;;;;;;4992586;28;19936;-83
2022/04/17 08:18:21;;;;;;;;;;;36.70;99.90;;;;;;5018816;23;20435;-86
2022/04/17 08:20:47;;;;;;;;;;;35.90;99.90;;;;;;5009329;28;20470;-87
2022/04/17 08:23:12;;;;;;;;;;;35.60;99.90;;;;;;5008394;28;19928;-86
2022/04/17 08:25:38;;;;;;;;;;;35.10;99.90;;;;;;5005480;28;19917;-87
2022/04/17 08:28:04;;;;;;;;;;;33.10;99.90;;;;;;5000549;28;20396;-88
2022/04/17 08:30:30;;;;;;;;;;;34.40;99.90;;;;;;5031254;28;19962;-86
2022/04/17 08:33:00;;;;;;;;;;;33.40;99.90;;;;;;5019601;28;19921;-87
2022/04/17 08:35:26;;;;;;;;;;;34.40;99.90;;;;;;5029311;28;20270;-88
2022/04/17 08:37:52;;;;;;;;;;;35.50;99.90;;;;;;5017887;28;19913;-88
2022/04/17 08:40:18;;;;;;;;;;;36.50;99.90;;;;;;5037431;28;19916;-87
2022/04/17 08:42:44;;;;;;;;;;;36.10;99.90;;;;;;5036507;28;19912;-86
2022/04/17 08:45:10;;;;;;;;;;;36.30;99.90;;;;;;5035823;28;19921;-86
2022/04/17 08:47:37;;;;;;;;;;;35.50;99.90;;;;;;5041505;28;19913;-86
2022/04/17 08:50:05;;;;;;;;;;;35.40;99.90;;;;;;5040785;28;19931;-85
2022/04/17 08:52:30;;;;;;;;;;;36.00;99.90;;;;;;5038361;28;19913;-86
2022/04/17 08:54:57;;;;;;;;;;;36.00;99.90;;;;;;5041332;28;19976;-86
2022/04/17 08:57:22;;;;;;;;;;;35.20;99.90;;;;;;5040934;28;20019;-86
2022/04/17 08:59:48;;;;;;;;;;;35.60;99.90;;;;;;5040813;28;19914;-86
2022/04/17 09:02:13;;;;;;;;;;;33.60;99.90;;;;;;5042684;28;19924;-85
2022/04/17 09:04:40;;;;;;;;;;;33.70;99.90;;;;;;5040425;28;21752;-85
2022/04/17 09:07:07;;;;;;;;;;;33.80;99.90;;;;;;5041616;28;20404;-86
2022/04/17 09:09:36;;;;;;;;;;;32.30;99.90;;;;;;5040128;28;19960;-86
2022/04/17 09:12:02;;;;;;;;;;;33.90;99.90;;;;;;5041408;28;20039;-86
2022/04/17 09:14:27;;;;;;;;;;;34.20;99.90;;;;;;5039811;28;19948;-86
2022/04/17 09:16:53;;;;;;;;;;;33.10;99.90;;;;;;5042216;28;19928;-86
2022/04/17 09:19:19;;;;;;;;;;;33.10;99.90;;;;;;5025543;28;19924;-85
2022/04/17 09:21:44;;;;;;;;;;;32.80;99.90;;;;;;5040446;28;19917;-86
2022/04/17 09:24:20;;;;;;;;;;;32.90;99.90;;;;;;5025169;28;19951;-86
2022/04/17 09:26:50;;;;;;;;;;;33.40;99.90;;;;;;5039120;28;19913;-86
2022/04/17 09:29:17;;;;;;;;;;;33.10;99.90;;;;;;5041618;28;19922;-86
2022/04/17 09:31:43;;;;;;;;;;;31.30;99.90;;;;;;5039682;28;19952;-86
2022/04/17 09:34:08;;;;;;;;;;;30.10;99.90;;;;;;5028357;28;19913;-85
2022/04/17 09:36:37;;;;;;;;;;;31.10;99.90;;;;;;5038762;28;20205;-86
2022/04/17 09:39:12;;;;;;;;;;;30.90;99.90;;;;;;5040157;28;19927;-85
2022/04/17 09:41:50;;;;;;;;;;;30.30;99.90;;;;;;5037247;28;19914;-86
2022/04/17 09:44:25;;;;;;;;;;;31.60;99.90;;;;;;5039492;28;19921;-86
2022/04/17 09:46:57;;;;;;;;;;;31.10;99.90;;;;;;5039569;28;19992;-86
2022/04/17 09:49:22;;;;;;;;;;;30.60;99.90;;;;;;5037381;28;19956;-85
2022/04/17 09:51:48;;;;;;;;;;;30.30;99.90;;;;;;5021641;28;19928;-85
2022/04/17 09:54:14;;;;;;;;;;;30.60;99.90;;;;;;5036866;28;19980;-84
2022/04/17 09:56:40;;;;;;;;;;;31.00;99.90;;;;;;5033630;28;19920;-84
2022/04/17 09:59:19;;;;;;;;;;;31.10;99.90;;;;;;5037020;28;20059;-84
2022/04/17 10:01:46;;;;;;;;;;;31.40;99.90;;;;;;5018912;28;19924;-86
2022/04/17 10:04:12;;;;;;;;;;;30.70;99.90;;;;;;5026188;28;19917;-84
2022/04/17 10:06:38;;;;;;;;;;;31.20;99.90;;;;;;5036396;28;19913;-82
2022/04/17 10:09:04;;;;;;;;;;;31.80;99.90;;;;;;5037579;28;20340;-82
2022/04/17 10:11:30;;;;;;;;;;;31.70;99.90;;;;;;5025816;28;19941;-83
2022/04/17 10:13:56;;;;;;;;;;;30.80;99.90;;;;;;5033759;28;20130;-82
2022/04/17 10:16:22;;;;;;;;;;;30.30;99.90;;;;;;5037329;28;20111;-83
2022/04/17 10:18:48;;;;;;;;;;;29.40;99.90;;;;;;5034107;28;19972;-82
2022/04/17 10:21:15;;;;;;;;;;;30.00;99.90;;;;;;5034119;28;20011;-82
2022/04/17 10:23:44;;;;;;;;;;;29.90;99.90;;;;;;5034598;28;19923;-83
2022/04/17 10:26:11;;;;;;;;;;;29.60;99.90;;;;;;5033893;28;19913;-83
2022/04/17 10:28:42;;;;;;;;;;;30.40;99.90;;;;;;5033064;28;20292;-83
2022/04/17 10:31:07;;;;;;;;;;;30.70;99.90;;;;;;5033923;28;19959;-81
2022/04/17 10:33:51;;;;;;;;;;;29.20;99.90;;;;;;5031245;28;19921;-81
2022/04/17 10:36:36;;;;;;;;;;;29.60;99.90;;;;;;5018793;28;19936;-81
2022/04/17 10:39:22;;;;;;;;;;;30.40;99.90;;;;;;5033933;28;19943;-82
2022/04/17 10:41:48;;;;;;;;;;;29.80;99.90;;;;;;5026559;28;19916;-82
2022/04/17 10:44:15;;;;;;;;;;;30.60;99.90;;;;;;5025614;28;19997;-83
2022/04/17 10:46:50;;;;;;;;;;;30.20;99.90;;;;;;5027545;28;20296;-81
2022/04/17 10:49:20;;;;;;;;;;;30.70;99.90;;;;;;5030510;28;19919;-81
2022/04/17 10:51:49;;;;;;;;;;;30.90;99.90;;;;;;5030333;28;19913;-86
2022/04/17 10:54:15;;;;;;;;;;;31.30;99.90;;;;;;5027412;28;19917;-83
2022/04/17 10:56:41;;;;;;;;;;;30.70;99.90;;;;;;5029024;28;20012;-83
2022/04/17 10:59:16;;;;;;;;;;;30.50;99.90;;;;;;5030058;28;19921;-83
2022/04/17 11:01:45;;;;;;;;;;;30.60;99.90;;;;;;5012696;28;20454;-83
2022/04/17 11:04:17;;;;;;;;;;;30.30;99.90;;;;;;5032573;28;19963;-82
2022/04/17 11:06:43;;;;;;;;;;;30.60;99.90;;;;;;5029713;28;19917;-82
2022/04/17 11:09:19;;;;;;;;;;;30.50;99.90;;;;;;5034339;28;19999;-83
2022/04/17 11:11:45;;;;;;;;;;;30.60;99.90;;;;;;5021442;28;20376;-83
2022/04/17 11:14:22;;;;;;;;;;;30.40;99.90;;;;;;5033775;28;19913;-82
2022/04/17 11:16:55;;;;;;;;;;;30.10;99.90;;;;;;5008111;28;19928;-83
2022/04/17 11:19:24;;;;;;;;;;;30.30;99.90;;;;;;5029349;28;19917;-83
2022/04/17 11:21:53;;;;;;;;;;;29.40;99.90;;;;;;5031452;28;19999;-82
2022/04/17 11:24:19;;;;;;;;;;;29.00;99.90;;;;;;5032882;28;19921;-82
2022/04/17 11:27:05;;;;;;;;;;;29.30;99.90;;;;;;5027615;28;19921;-82
2022/04/17 11:29:34;;;;;;;;;;;28.70;99.90;;;;;;5020772;28;20347;-81
2022/04/17 11:32:00;;;;;;;;;;;28.00;99.90;;;;;;5033018;28;19917;-83
2022/04/17 11:34:39;;;;;;;;;;;27.90;99.90;;;;;;5035887;28;19975;-82
2022/04/17 11:37:05;;;;;;;;;;;28.30;99.90;;;;;;5031483;28;19913;-83
2022/04/17 11:39:31;;;;;;;;;;;28.60;99.90;;;;;;5035186;28;19923;-82
2022/04/17 11:41:58;;;;;;;;;;;28.00;99.90;;;;;;5032058;28;20286;-82
2022/04/17 11:44:26;;;;;;;;;;;28.00;99.90;;;;;;5033596;28;19921;-83
2022/04/17 11:46:52;;;;;;;;;;;28.60;99.90;;;;;;5022054;28;19928;-82
2022/04/17 11:49:18;;;;;;;;;;;28.20;99.90;;;;;;5027652;28;20035;-81
2022/04/17 11:51:43;;;;;;;;;;;28.40;99.90;;;;;;5020192;28;19979;-81
2022/04/17 11:54:27;;;;;;;;;;;28.20;99.90;;;;;;5028609;28;20512;-82
2022/04/17 11:56:53;;;;;;;;;;;27.10;99.90;;;;;;5027661;28;20000;-82
2022/04/17 11:59:18;;;;;;;;;;;27.20;99.90;;;;;;5033499;28;19952;-82
2022/04/17 12:01:44;;;;;;;;;;;27.90;99.90;;;;;;5031686;28;19922;-82
2022/04/17 12:04:19;;;;;;;;;;;27.80;99.90;;;;;;5031993;28;20329;-81
2022/04/17 12:06:44;;;;;;;;;;;28.00;99.90;;;;;;5033974;28;19913;-82
2022/04/17 12:09:11;;;;;;;;;;;27.30;99.90;;;;;;5034620;28;19917;-82
2022/04/17 12:11:39;;;;;;;;;;;27.50;99.90;;;;;;5031107;28;20069;-82
2022/04/17 12:14:05;;;;;;;;;;;27.70;99.90;;;;;;5035036;28;19913;-83
2022/04/17 12:16:30;;;;;;;;;;;27.70;99.90;;;;;;5035455;28;19917;-82
2022/04/17 12:18:56;;;;;;;;;;;26.50;99.90;;;;;;5033977;28;19932;-82
2022/04/17 12:21:28;;;;;;;;;;;27.40;99.90;;;;;;5023238;28;19928;-82
2022/04/17 12:23:54;;;;;;;;;;;27.40;99.90;;;;;;5019541;28;19929;-82
2022/04/17 12:26:20;;;;;;;;;;;26.90;99.90;;;;;;5035200;28;20129;-83
2022/04/17 12:28:46;;;;;;;;;;;26.90;99.90;;;;;;5029145;28;19920;-81
2022/04/17 12:31:14;;;;;;;;;;;26.70;99.90;;;;;;5034973;28;19921;-81
2022/04/17 12:33:40;;;;;;;;;;;27.10;99.90;;;;;;5035212;28;20008;-81
2022/04/17 12:36:07;;;;;;;;;;;26.40;99.90;;;;;;5028227;28;20661;-80
2022/04/17 12:38:36;;;;;;;;;;;27.40;99.90;;;;;;5035722;28;19928;-81
2022/04/17 12:41:15;;;;;;;;;;;27.20;99.90;;;;;;5035706;28;20436;-82
2022/04/17 12:43:40;;;;;;;;;;;26.50;99.90;;;;;;5034300;28;19917;-82
2022/04/17 12:46:10;;;;;;;;;;;26.20;99.90;;;;;;5018909;28;19931;-82
2022/04/17 12:48:36;;;;;;;;;;;26.50;99.90;;;;;;5033781;28;19913;-81
2022/04/17 12:51:09;;;;;;;;;;;27.40;99.90;;;;;;5021661;28;20349;-81
2022/04/17 12:53:36;;;;;;;;;;;27.90;99.90;;;;;;5019894;28;19924;-82
2022/04/17 12:56:02;;;;;;;;;;;27.70;99.90;;;;;;5033975;28;19948;-80
2022/04/17 12:58:27;;;;;;;;;;;27.70;99.90;;;;;;5031880;28;19920;-81
2022/04/17 13:00:57;;;;;;;;;;;26.60;99.90;;;;;;5033770;28;19917;-81
2022/04/17 13:03:31;;;;;;;;;;;26.40;99.90;;;;;;5028293;28;19917;-82
2022/04/17 13:05:58;;;;;;;;;;;25.00;99.90;;;;;;5032608;28;19917;-81
2022/04/17 13:08:24;;;;;;;;;;;24.80;99.90;;;;;;5034082;28;19917;-80
2022/04/17 13:10:52;;;;;;;;;;;25.50;99.90;;;;;;5028121;28;20258;-81
2022/04/17 13:13:39;;;;;;;;;;;26.20;99.90;;;;;;5034137;28;20446;-81
2022/04/17 13:16:05;;;;;;;;;;;26.40;99.90;;;;;;5033618;28;19917;-81
2022/04/17 13:18:34;;;;;;;;;;;25.20;99.90;;;;;;5031233;28;20391;-81
2022/04/17 13:21:00;;;;;;;;;;;25.00;99.90;;;;;;5034229;28;19920;-81
2022/04/17 13:23:25;;;;;;;;;;;25.50;99.90;;;;;;5033402;28;19917;-81
2022/04/17 13:25:51;;;;;;;;;;;25.40;99.90;;;;;;5033366;28;19921;-81
2022/04/17 13:28:16;;;;;;;;;;;24.90;99.90;;;;;;5016600;28;19936;-81
2022/04/17 13:30:42;;;;;;;;;;;24.50;99.90;;;;;;5027353;28;19928;-82
2022/04/17 13:33:07;;;;;;;;;;;24.90;99.90;;;;;;5032537;28;19960;-81
2022/04/17 13:35:33;;;;;;;;;;;24.80;99.90;;;;;;5013998;28;19924;-79
2022/04/17 13:38:13;;;;;;;;;;;25.40;99.90;;;;;;5030737;28;19955;-80
2022/04/17 13:40:39;;;;;;;;;;;25.50;99.90;;;;;;5018771;28;19917;-80
2022/04/17 13:43:04;;;;;;;;;;;25.10;99.90;;;;;;5021727;28;19921;-80
2022/04/17 13:45:30;;;;;;;;;;;24.70;99.90;;;;;;5021946;28;20016;-80
2022/04/17 13:47:55;;;;;;;;;;;24.70;99.90;;;;;;5028695;28;19913;-81
2022/04/17 13:50:21;;;;;;;;;;;24.70;99.90;;;;;;5032266;28;20000;-80
2022/04/17 13:52:46;;;;;;;;;;;24.20;99.90;;;;;;5027563;28;19939;-79
2022/04/17 13:55:18;;;;;;;;;;;23.80;99.90;;;;;;5028807;28;19939;-81
2022/04/17 13:57:45;;;;;;;;;;;23.40;99.90;;;;;;5025986;28;19913;-82
2022/04/17 14:00:11;;;;;;;;;;;23.70;99.90;;;;;;5032689;28;19960;-82
2022/04/17 14:02:37;;;;;;;;;;;23.80;99.90;;;;;;5030500;28;19913;-82
2022/04/17 14:05:06;;;;;;;;;;;23.50;99.90;;;;;;5030074;28;19949;-80
2022/04/17 14:07:34;;;;;;;;;;;23.50;99.90;;;;;;5012010;28;19960;-80
2022/04/17 14:10:00;;;;;;;;;;;23.60;99.90;;;;;;5029084;28;19978;-80
2022/04/17 14:12:25;;;;;;;;;;;23.40;99.90;;;;;;5030495;28;19976;-81
2022/04/17 14:14:55;;;;;;;;;;;23.60;99.90;;;;;;5029842;28;19929;-81
2022/04/17 14:17:20;;;;;;;;;;;23.90;99.90;;;;;;5030993;28;19920;-81
2022/04/17 14:19:46;;;;;;;;;;;23.90;99.90;;;;;;5029673;28;19925;-81
2022/04/17 14:22:11;;;;;;;;;;;23.80;99.90;;;;;;5032039;28;19917;-84
2022/04/17 14:24:37;;;;;;;;;;;23.60;99.90;;;;;;5019029;28;19917;-84
2022/04/17 14:27:02;;;;;;;;;;;23.80;99.90;;;;;;5036234;28;19999;-82
2022/04/17 14:29:28;;;;;;;;;;;23.80;99.90;;;;;;5034880;28;20254;-83
2022/04/17 14:31:53;;;;;;;;;;;23.60;99.90;;;;;;5034177;28;19983;-83
2022/04/17 14:34:19;;;;;;;;;;;23.10;99.90;;;;;;5033801;28;19941;-83
2022/04/17 14:36:44;;;;;;;;;;;22.80;99.90;;;;;;5034854;28;19913;-84
2022/04/17 14:39:10;;;;;;;;;;;22.20;99.90;;;;;;5038303;28;19913;-84
2022/04/17 14:41:35;;;;;;;;;;;21.80;99.90;;;;;;5037922;28;19913;-83
2022/04/17 14:44:01;;;;;;;;;;;21.70;99.90;;;;;;5034697;28;19980;-84